sensor_id;sensor_type;location;lat;lon;timestamp;temperature;humidity
14349;DHT22;7258;50.376;8.742;2022-12-18T00:00:27;-9.00;99.90
14349;DHT22;7258;50.376;8.742;2022-12-18T00:02:29;-9.00;99.90
14349;DHT22;7258;50.376;8.742;2022-12-18T00:04:32;-9.00;99.90
14349;DHT22;7258;50.376;8.742;2022-12-18T00:06:35;-9.10;99.90
14349;DHT22;7258;50.376;8.742;2022-12-18T00:08:39;-9.10;99.90
14349;DHT22;7258;50.376;8.742;2022-12-18T00:10:42;-9.10;99.90
14349;DHT22;7258;50.376;8.742;2022-12-18T00:12:48;-9.20;99.90
14349;DHT22;7258;50.376;8.742;2022-12-18T00:14:50;-9.20;99.90
14349;DHT22;7258;50.376;8.742;2022-12-18T00:16:53;-9.20;99.90
14349;DHT22;7258;50.376;8.742;2022-12-18T00:18:59;-9.20;99.90
14349;DHT22;7258;50.376;8.742;2022-12-18T00:21:05;-9.20;99.90
14349;DHT22;7258;50.376;8.742;2022-12-18T00:23:08;-9.20;99.90
14349;DHT22;7258;50.376;8.742;2022-12-18T00:25:12;-9.10;99.90
14349;DHT22;7258;50.376;8.742;2022-12-18T00:27:15;-9.20;99.90
14349;DHT22;7258;50.376;8.742;2022-12-18T00:29:18;-9.20;99.90
14349;DHT22;7258;50.376;8.742;2022-12-18T00:31:23;-9.20;99.90
14349;DHT22;7258;50.376;8.742;2022-12-18T00:33:27;-9.10;99.90
14349;DHT22;7258;50.376;8.742;2022-12-18T00:35:30;-9.10;99.90
14349;DHT22;7258;50.376;8.742;2022-12-18T00:37:34;-9.10;99.90
14349;DHT22;7258;50.376;8.742;2022-12-18T00:39:36;-9.10;99.90
14349;DHT22;7258;50.376;8.742;2022-12-18T00:41:41;-9.10;99.90
14349;DHT22;7258;50.376;8.742;2022-12-18T00:44:02;-9.10;99.90
14349;DHT22;7258;50.376;8.742;2022-12-18T00:46:05;-9.10;99.90
14349;DHT22;7258;50.376;8.742;2022-12-18T00:48:08;-9.10;99.90
14349;DHT22;7258;50.376;8.742;2022-12-18T00:50:11;-9.10;99.90
14349;DHT22;7258;50.376;8.742;2022-12-18T00:52:14;-9.20;99.90
14349;DHT22;7258;50.376;8.742;2022-12-18T00:54:17;-9.10;99.90
14349;DHT22;7258;50.376;8.742;2022-12-18T00:56:23;-9.10;99.90
14349;DHT22;7258;50.376;8.742;2022-12-18T00:58:28;-9.10;99.90
14349;DHT22;7258;50.376;8.742;2022-12-18T01:00:31;-9.00;99.90
14349;DHT22;7258;50.376;8.742;2022-12-18T01:02:33;-9.00;99.90
14349;DHT22;7258;50.376;8.742;2022-12-18T01:04:36;-8.90;99.90
14349;DHT22;7258;50.376;8.742;2022-12-18T01:06:39;-8.90;99.90
14349;DHT22;7258;50.376;8.742;2022-12-18T01:08:42;-8.90;99.90
14349;DHT22;7258;50.376;8.742;2022-12-18T01:10:46;-8.90;99.90
14349;DHT22;7258;50.376;8.742;2022-12-18T01:12:49;-8.80;99.90
14349;DHT22;7258;50.376;8.742;2022-12-18T01:14:53;-8.80;99.90
14349;DHT22;7258;50.376;8.742;2022-12-18T01:16:55;-8.80;99.90
14349;DHT22;7258;50.376;8.742;2022-12-18T01:18:58;-8.80;99.90
14349;DHT22;7258;50.376;8.742;2022-12-18T01:21:05;-8.70;99.90
14349;DHT22;7258;50.376;8.742;2022-12-18T01:23:08;-8.70;99.90
14349;DHT22;7258;50.376;8.742;2022-12-18T01:25:11;-8.70;99.90
14349;DHT22;7258;50.376;8.742;2022-12-18T01:27:14;-8.60;99.90
14349;DHT22;7258;50.376;8.742;2022-12-18T01:29:17;-8.60;99.90
14349;DHT22;7258;50.376;8.742;2022-12-18T01:31:23;-8.50;99.90
14349;DHT22;7258;50.376;8.742;2022-12-18T01:33:26;-8.50;99.90
14349;DHT22;7258;50.376;8.742;2022-12-18T01:35:29;-8.50;99.90
14349;DHT22;7258;50.376;8.742;2022-12-18T01:37:31;-8.50;99.90
14349;DHT22;7258;50.376;8.742;2022-12-18T01:39:34;-8.50;99.90
14349;DHT22;7258;50.376;8.742;2022-12-18T01:41:37;-8.50;99.90
14349;DHT22;7258;50.376;8.742;2022-12-18T01:43:58;-8.50;99.90
14349;DHT22;7258;50.376;8.742;2022-12-18T01:46:01;-8.50;99.90
14349;DHT22;7258;50.376;8.742;2022-12-18T01:48:07;-8.50;99.90
14349;DHT22;7258;50.376;8.742;2022-12-18T01:50:13;-8.50;99.90
14349;DHT22;7258;50.376;8.742;2022-12-18T01:52:18;-8.50;99.90
14349;DHT22;7258;50.376;8.742;2022-12-18T01:54:21;-8.60;99.90
14349;DHT22;7258;50.376;8.742;2022-12-18T01:56:24;-8.60;99.90
14349;DHT22;7258;50.376;8.742;2022-12-18T01:58:32;-8.60;99.90
14349;DHT22;7258;50.376;8.742;2022-12-18T02:00:38;-8.60;99.90
14349;DHT22;7258;50.376;8.742;2022-12-18T02:02:42;-8.70;99.90
14349;DHT22;7258;50.376;8.742;2022-12-18T02:04:47;-8.70;99.90
14349;DHT22;7258;50.376;8.742;2022-12-18T02:06:54;-8.80;99.90
14349;DHT22;7258;50.376;8.742;2022-12-18T02:09:07;-8.80;99.90
14349;DHT22;7258;50.376;8.742;2022-12-18T02:11:20;-8.80;99.90
14349;DHT22;7258;50.376;8.742;2022-12-18T02:13:32;-8.80;99.90
14349;DHT22;7258;50.376;8.742;2022-12-18T02:15:40;-8.80;99.90
14349;DHT22;7258;50.376;8.742;2022-12-18T02:17:52;-8.80;99.90
14349;DHT22;7258;50.376;8.742;2022-12-18T02:20:08;-8.90;99.90
14349;DHT22;7258;50.376;8.742;2022-12-18T02:22:27;-8.90;99.90
14349;DHT22;7258;50.376;8.742;2022-12-18T02:24:37;-8.90;99.90
14349;DHT22;7258;50.376;8.742;2022-12-18T02:26:45;-8.90;99.90
14349;DHT22;7258;50.376;8.742;2022-12-18T02:28:53;-8.90;99.90
14349;DHT22;7258;50.376;8.742;2022-12-18T02:31:00;-8.90;99.90
14349;DHT22;7258;50.376;8.742;2022-12-18T02:33:07;-9.00;99.90
14349;DHT22;7258;50.376;8.742;2022-12-18T02:35:13;-9.00;99.90
14349;DHT22;7258;50.376;8.742;2022-12-18T02:37:18;-9.10;99.90
14349;DHT22;7258;50.376;8.742;2022-12-18T02:39:25;-9.10;99.90
14349;DHT22;7258;50.376;8.742;2022-12-18T02:41:30;-9.20;99.90
14349;DHT22;7258;50.376;8.742;2022-12-18T02:43:35;-9.10;99.90
14349;DHT22;7258;50.376;8.742;2022-12-18T02:45:47;-9.20;99.90
14349;DHT22;7258;50.376;8.742;2022-12-18T02:47:50;-9.20;99.90
14349;DHT22;7258;50.376;8.742;2022-12-18T02:49:59;-9.20;99.90
14349;DHT22;7258;50.376;8.742;2022-12-18T02:52:07;-9.20;99.90
14349;DHT22;7258;50.376;8.742;2022-12-18T02:54:18;-9.20;99.90
14349;DHT22;7258;50.376;8.742;2022-12-18T02:56:27;-9.20;99.90
14349;DHT22;7258;50.376;8.742;2022-12-18T02:58:40;-9.20;99.90
14349;DHT22;7258;50.376;8.742;2022-12-18T03:00:56;-9.20;99.90
14349;DHT22;7258;50.376;8.742;2022-12-18T03:03:06;-9.30;99.90
14349;DHT22;7258;50.376;8.742;2022-12-18T03:05:13;-9.30;99.90
14349;DHT22;7258;50.376;8.742;2022-12-18T03:07:20;-9.30;99.90
14349;DHT22;7258;50.376;8.742;2022-12-18T03:09:29;-9.30;99.90
14349;DHT22;7258;50.376;8.742;2022-12-18T03:11:36;-9.40;99.90
14349;DHT22;7258;50.376;8.742;2022-12-18T03:14:00;-9.40;99.90
14349;DHT22;7258;50.376;8.742;2022-12-18T03:16:06;-9.50;99.90
14349;DHT22;7258;50.376;8.742;2022-12-18T03:18:13;-9.60;99.90
14349;DHT22;7258;50.376;8.742;2022-12-18T03:20:19;-9.60;99.90
14349;DHT22;7258;50.376;8.742;2022-12-18T03:22:24;-9.70;99.90
14349;DHT22;7258;50.376;8.742;2022-12-18T03:24:31;-9.70;99.90
14349;DHT22;7258;50.376;8.742;2022-12-18T03:26:35;-9.70;99.90
14349;DHT22;7258;50.376;8.742;2022-12-18T03:28:44;-9.70;99.90
14349;DHT22;7258;50.376;8.742;2022-12-18T03:30:52;-9.70;99.90
14349;DHT22;7258;50.376;8.742;2022-12-18T03:33:01;-9.70;99.90
14349;DHT22;7258;50.376;8.742;2022-12-18T03:35:07;-9.70;99.90
14349;DHT22;7258;50.376;8.742;2022-12-18T03:37:10;-9.70;99.90
14349;DHT22;7258;50.376;8.742;2022-12-18T03:39:13;-9.70;99.90
14349;DHT22;7258;50.376;8.742;2022-12-18T03:41:19;-9.70;99.90
14349;DHT22;7258;50.376;8.742;2022-12-18T03:43:35;-9.70;99.90
14349;DHT22;7258;50.376;8.742;2022-12-18T03:45:43;-9.70;99.90
14349;DHT22;7258;50.376;8.742;2022-12-18T03:47:59;-9.70;99.90
14349;DHT22;7258;50.376;8.742;2022-12-18T03:50:07;-9.80;99.90
14349;DHT22;7258;50.376;8.742;2022-12-18T03:52:18;-9.80;99.90
14349;DHT22;7258;50.376;8.742;2022-12-18T03:54:24;-9.80;99.90
14349;DHT22;7258;50.376;8.742;2022-12-18T03:56:30;-9.80;99.90
14349;DHT22;7258;50.376;8.742;2022-12-18T03:58:37;-9.90;99.90
14349;DHT22;7258;50.376;8.742;2022-12-18T04:00:43;-9.90;99.90
14349;DHT22;7258;50.376;8.742;2022-12-18T04:02:49;-10.00;99.90
14349;DHT22;7258;50.376;8.742;2022-12-18T04:04:57;-10.00;99.90
14349;DHT22;7258;50.376;8.742;2022-12-18T04:07:02;-10.10;99.90
14349;DHT22;7258;50.376;8.742;2022-12-18T04:09:05;-10.20;99.90
14349;DHT22;7258;50.376;8.742;2022-12-18T04:11:08;-10.20;99.90
14349;DHT22;7258;50.376;8.742;2022-12-18T04:13:10;-10.20;99.90
14349;DHT22;7258;50.376;8.742;2022-12-18T04:15:13;-10.30;99.90
14349;DHT22;7258;50.376;8.742;2022-12-18T04:17:16;-10.30;99.90
14349;DHT22;7258;50.376;8.742;2022-12-18T04:19:19;-10.30;99.90
14349;DHT22;7258;50.376;8.742;2022-12-18T04:21:23;-10.40;99.90
14349;DHT22;7258;50.376;8.742;2022-12-18T04:23:26;-10.40;99.90
14349;DHT22;7258;50.376;8.742;2022-12-18T04:25:29;-10.40;99.90
14349;DHT22;7258;50.376;8.742;2022-12-18T04:27:32;-10.40;99.90
14349;DHT22;7258;50.376;8.742;2022-12-18T04:29:35;-10.50;99.90
14349;DHT22;7258;50.376;8.742;2022-12-18T04:31:37;-10.40;99.90
14349;DHT22;7258;50.376;8.742;2022-12-18T04:33:40;-10.40;99.90
14349;DHT22;7258;50.376;8.742;2022-12-18T04:35:44;-10.40;99.90
14349;DHT22;7258;50.376;8.742;2022-12-18T04:37:48;-10.50;99.90
14349;DHT22;7258;50.376;8.742;2022-12-18T04:39:51;-10.50;99.90
14349;DHT22;7258;50.376;8.742;2022-12-18T04:41:54;-10.50;99.90
14349;DHT22;7258;50.376;8.742;2022-12-18T04:43:57;-10.50;99.90
14349;DHT22;7258;50.376;8.742;2022-12-18T04:46:03;-10.60;99.90
14349;DHT22;7258;50.376;8.742;2022-12-18T04:48:06;-10.60;99.90
14349;DHT22;7258;50.376;8.742;2022-12-18T04:50:09;-10.60;99.90
14349;DHT22;7258;50.376;8.742;2022-12-18T04:52:12;-10.60;99.90
14349;DHT22;7258;50.376;8.742;2022-12-18T04:54:19;-10.70;99.90
14349;DHT22;7258;50.376;8.742;2022-12-18T04:56:22;-10.70;99.90
14349;DHT22;7258;50.376;8.742;2022-12-18T04:58:25;-10.70;99.90
14349;DHT22;7258;50.376;8.742;2022-12-18T05:00:28;-10.60;99.90
14349;DHT22;7258;50.376;8.742;2022-12-18T05:02:31;-10.60;99.90
14349;DHT22;7258;50.376;8.742;2022-12-18T05:04:34;-10.70;99.90
14349;DHT22;7258;50.376;8.742;2022-12-18T05:06:37;-10.70;99.90
14349;DHT22;7258;50.376;8.742;2022-12-18T05:08:40;-10.70;99.90
14349;DHT22;7258;50.376;8.742;2022-12-18T05:10:44;-10.80;99.90
14349;DHT22;7258;50.376;8.742;2022-12-18T05:12:47;-10.80;99.90
14349;DHT22;7258;50.376;8.742;2022-12-18T05:15:06;-10.80;99.90
14349;DHT22;7258;50.376;8.742;2022-12-18T05:17:09;-10.70;99.90
14349;DHT22;7258;50.376;8.742;2022-12-18T05:19:12;-10.70;99.90
14349;DHT22;7258;50.376;8.742;2022-12-18T05:21:15;-10.70;99.90
14349;DHT22;7258;50.376;8.742;2022-12-18T05:23:18;-10.70;99.90
14349;DHT22;7258;50.376;8.742;2022-12-18T05:25:22;-10.70;99.90
14349;DHT22;7258;50.376;8.742;2022-12-18T05:27:26;-10.70;99.90
14349;DHT22;7258;50.376;8.742;2022-12-18T05:29:29;-10.80;99.90
14349;DHT22;7258;50.376;8.742;2022-12-18T05:31:32;-10.90;99.90
14349;DHT22;7258;50.376;8.742;2022-12-18T05:33:40;-10.90;99.90
14349;DHT22;7258;50.376;8.742;2022-12-18T05:35:44;-11.00;99.90
14349;DHT22;7258;50.376;8.742;2022-12-18T05:37:47;-11.10;99.90
14349;DHT22;7258;50.376;8.742;2022-12-18T05:39:50;-11.10;99.90
14349;DHT22;7258;50.376;8.742;2022-12-18T05:41:52;-11.20;99.90
14349;DHT22;7258;50.376;8.742;2022-12-18T05:43:57;-11.20;99.90
14349;DHT22;7258;50.376;8.742;2022-12-18T05:46:04;-11.30;99.90
14349;DHT22;7258;50.376;8.742;2022-12-18T05:48:09;-11.30;99.90
14349;DHT22;7258;50.376;8.742;2022-12-18T05:50:12;-11.20;99.90
14349;DHT22;7258;50.376;8.742;2022-12-18T05:52:15;-11.20;99.90
14349;DHT22;7258;50.376;8.742;2022-12-18T05:54:18;-11.20;99.90
14349;DHT22;7258;50.376;8.742;2022-12-18T05:56:22;-11.20;99.90
14349;DHT22;7258;50.376;8.742;2022-12-18T05:58:25;-11.20;99.90
14349;DHT22;7258;50.376;8.742;2022-12-18T06:00:29;-11.20;99.90
14349;DHT22;7258;50.376;8.742;2022-12-18T06:02:33;-11.20;99.90
14349;DHT22;7258;50.376;8.742;2022-12-18T06:04:36;-11.30;99.90
14349;DHT22;7258;50.376;8.742;2022-12-18T06:06:39;-11.30;99.90
14349;DHT22;7258;50.376;8.742;2022-12-18T06:08:42;-11.20;99.90
14349;DHT22;7258;50.376;8.742;2022-12-18T06:10:50;-11.20;99.90
14349;DHT22;7258;50.376;8.742;2022-12-18T06:12:54;-11.20;99.90
14349;DHT22;7258;50.376;8.742;2022-12-18T06:14:56;-11.30;99.90
14349;DHT22;7258;50.376;8.742;2022-12-18T06:17:00;-11.30;99.90
14349;DHT22;7258;50.376;8.742;2022-12-18T06:19:04;-11.30;99.90
14349;DHT22;7258;50.376;8.742;2022-12-18T06:21:07;-11.30;99.90
14349;DHT22;7258;50.376;8.742;2022-12-18T06:23:10;-11.30;99.90
14349;DHT22;7258;50.376;8.742;2022-12-18T06:25:13;-11.20;99.90
14349;DHT22;7258;50.376;8.742;2022-12-18T06:27:16;-11.20;99.90
14349;DHT22;7258;50.376;8.742;2022-12-18T06:29:19;-11.20;99.90
14349;DHT22;7258;50.376;8.742;2022-12-18T06:31:22;-11.20;99.90
14349;DHT22;7258;50.376;8.742;2022-12-18T06:33:27;-11.30;99.90
14349;DHT22;7258;50.376;8.742;2022-12-18T06:35:31;-11.30;99.90
14349;DHT22;7258;50.376;8.742;2022-12-18T06:37:34;-11.30;99.90
14349;DHT22;7258;50.376;8.742;2022-12-18T06:39:37;-11.20;99.90
14349;DHT22;7258;50.376;8.742;2022-12-18T06:41:40;-11.20;99.90
14349;DHT22;7258;50.376;8.742;2022-12-18T06:43:43;-11.20;99.90
14349;DHT22;7258;50.376;8.742;2022-12-18T06:45:45;-11.20;99.90
14349;DHT22;7258;50.376;8.742;2022-12-18T06:47:54;-11.20;99.90
14349;DHT22;7258;50.376;8.742;2022-12-18T06:49:59;-11.20;99.90
14349;DHT22;7258;50.376;8.742;2022-12-18T06:52:02;-11.20;99.90
14349;DHT22;7258;50.376;8.742;2022-12-18T06:54:05;-11.20;99.90
14349;DHT22;7258;50.376;8.742;2022-12-18T06:56:08;-11.20;99.90
14349;DHT22;7258;50.376;8.742;2022-12-18T06:58:11;-11.20;99.90
14349;DHT22;7258;50.376;8.742;2022-12-18T07:00:14;-11.20;99.90
14349;DHT22;7258;50.376;8.742;2022-12-18T07:02:17;-11.20;99.90
14349;DHT22;7258;50.376;8.742;2022-12-18T07:04:20;-11.30;99.90
14349;DHT22;7258;50.376;8.742;2022-12-18T07:06:25;-11.30;99.90
14349;DHT22;7258;50.376;8.742;2022-12-18T07:08:28;-11.30;99.90
14349;DHT22;7258;50.376;8.742;2022-12-18T07:10:31;-11.30;99.90
14349;DHT22;7258;50.376;8.742;2022-12-18T07:12:35;-11.30;99.90
14349;DHT22;7258;50.376;8.742;2022-12-18T07:14:38;-11.20;99.90
14349;DHT22;7258;50.376;8.742;2022-12-18T07:16:40;-11.10;99.90
14349;DHT22;7258;50.376;8.742;2022-12-18T07:18:43;-11.10;99.90
14349;DHT22;7258;50.376;8.742;2022-12-18T07:20:46;-11.10;99.90
14349;DHT22;7258;50.376;8.742;2022-12-18T07:22:50;-11.10;99.90
14349;DHT22;7258;50.376;8.742;2022-12-18T07:24:57;-11.10;99.90
14349;DHT22;7258;50.376;8.742;2022-12-18T07:27:00;-11.10;99.90
14349;DHT22;7258;50.376;8.742;2022-12-18T07:29:03;-11.10;99.90
14349;DHT22;7258;50.376;8.742;2022-12-18T07:31:07;-11.10;99.90
14349;DHT22;7258;50.376;8.742;2022-12-18T07:33:10;-11.00;99.90
14349;DHT22;7258;50.376;8.742;2022-12-18T07:35:13;-11.00;99.90
14349;DHT22;7258;50.376;8.742;2022-12-18T07:37:21;-11.00;99.90
14349;DHT22;7258;50.376;8.742;2022-12-18T07:39:25;-10.90;99.90
14349;DHT22;7258;50.376;8.742;2022-12-18T07:41:28;-10.90;99.90
14349;DHT22;7258;50.376;8.742;2022-12-18T07:43:31;-11.00;99.90
14349;DHT22;7258;50.376;8.742;2022-12-18T07:45:33;-11.00;99.90
14349;DHT22;7258;50.376;8.742;2022-12-18T07:47:36;-11.00;99.90
14349;DHT22;7258;50.376;8.742;2022-12-18T07:49:39;-11.00;99.90
14349;DHT22;7258;50.376;8.742;2022-12-18T07:51:42;-11.00;99.90
14349;DHT22;7258;50.376;8.742;2022-12-18T07:53:47;-11.00;99.90
14349;DHT22;7258;50.376;8.742;2022-12-18T07:55:56;-11.00;99.90
14349;DHT22;7258;50.376;8.742;2022-12-18T07:58:19;-11.00;99.90
14349;DHT22;7258;50.376;8.742;2022-12-18T08:00:22;-11.00;99.90
14349;DHT22;7258;50.376;8.742;2022-12-18T08:02:25;-11.00;99.90
14349;DHT22;7258;50.376;8.742;2022-12-18T08:04:28;-11.00;99.90
14349;DHT22;7258;50.376;8.742;2022-12-18T08:06:30;-11.00;99.90
14349;DHT22;7258;50.376;8.742;2022-12-18T08:08:34;-11.00;99.90
14349;DHT22;7258;50.376;8.742;2022-12-18T08:10:37;-11.00;99.90
14349;DHT22;7258;50.376;8.742;2022-12-18T08:12:42;-11.00;99.90
14349;DHT22;7258;50.376;8.742;2022-12-18T08:14:44;-10.90;99.90
14349;DHT22;7258;50.376;8.742;2022-12-18T08:16:47;-10.90;99.90
14349;DHT22;7258;50.376;8.742;2022-12-18T08:18:51;-10.80;99.90
14349;DHT22;7258;50.376;8.742;2022-12-18T08:20:55;-10.70;99.90
14349;DHT22;7258;50.376;8.742;2022-12-18T08:22:58;-10.60;99.90
14349;DHT22;7258;50.376;8.742;2022-12-18T08:25:00;-10.60;99.90
14349;DHT22;7258;50.376;8.742;2022-12-18T08:27:03;-10.50;99.90
14349;DHT22;7258;50.376;8.742;2022-12-18T08:29:27;-10.30;99.90
14349;DHT22;7258;50.376;8.742;2022-12-18T08:31:31;-10.20;99.90
14349;DHT22;7258;50.376;8.742;2022-12-18T08:33:35;-10.10;99.90
14349;DHT22;7258;50.376;8.742;2022-12-18T08:35:40;-10.00;99.90
14349;DHT22;7258;50.376;8.742;2022-12-18T08:37:46;-9.90;99.90
14349;DHT22;7258;50.376;8.742;2022-12-18T08:39:49;-9.70;99.90
14349;DHT22;7258;50.376;8.742;2022-12-18T08:41:52;-9.60;99.90
14349;DHT22;7258;50.376;8.742;2022-12-18T08:44:11;-9.50;99.90
14349;DHT22;7258;50.376;8.742;2022-12-18T08:46:35;-9.40;99.90
14349;DHT22;7258;50.376;8.742;2022-12-18T08:48:38;-9.30;99.90
14349;DHT22;7258;50.376;8.742;2022-12-18T08:50:41;-9.20;99.90
14349;DHT22;7258;50.376;8.742;2022-12-18T08:52:43;-9.20;99.90
14349;DHT22;7258;50.376;8.742;2022-12-18T08:54:47;-9.20;99.90
14349;DHT22;7258;50.376;8.742;2022-12-18T08:56:50;-9.10;99.90
14349;DHT22;7258;50.376;8.742;2022-12-18T08:58:54;-9.10;99.90
14349;DHT22;7258;50.376;8.742;2022-12-18T09:00:59;-9.00;99.90
14349;DHT22;7258;50.376;8.742;2022-12-18T09:03:04;-8.90;99.90
14349;DHT22;7258;50.376;8.742;2022-12-18T09:05:07;-8.80;99.90
14349;DHT22;7258;50.376;8.742;2022-12-18T09:07:10;-8.70;99.90
14349;DHT22;7258;50.376;8.742;2022-12-18T09:09:13;-8.60;99.90
14349;DHT22;7258;50.376;8.742;2022-12-18T09:11:20;-8.50;99.90
14349;DHT22;7258;50.376;8.742;2022-12-18T09:13:23;-8.40;99.90
14349;DHT22;7258;50.376;8.742;2022-12-18T09:15:26;-8.40;99.90
14349;DHT22;7258;50.376;8.742;2022-12-18T09:17:28;-8.30;99.90
14349;DHT22;7258;50.376;8.742;2022-12-18T09:19:33;-8.20;99.90
14349;DHT22;7258;50.376;8.742;2022-12-18T09:21:39;-8.10;99.90
14349;DHT22;7258;50.376;8.742;2022-12-18T09:23:49;-8.10;99.90
14349;DHT22;7258;50.376;8.742;2022-12-18T09:25:58;-8.00;99.90
14349;DHT22;7258;50.376;8.742;2022-12-18T09:28:01;-7.90;99.90
14349;DHT22;7258;50.376;8.742;2022-12-18T09:30:06;-7.90;99.90
14349;DHT22;7258;50.376;8.742;2022-12-18T09:32:09;-7.80;99.90
14349;DHT22;7258;50.376;8.742;2022-12-18T09:34:12;-7.80;99.90
14349;DHT22;7258;50.376;8.742;2022-12-18T09:36:17;-7.60;99.90
14349;DHT22;7258;50.376;8.742;2022-12-18T09:38:22;-7.50;99.90
14349;DHT22;7258;50.376;8.742;2022-12-18T09:40:30;-7.40;99.90
14349;DHT22;7258;50.376;8.742;2022-12-18T09:42:35;-7.30;99.90
14349;DHT22;7258;50.376;8.742;2022-12-18T09:44:41;-7.30;99.90
14349;DHT22;7258;50.376;8.742;2022-12-18T09:46:50;-7.20;99.90
14349;DHT22;7258;50.376;8.742;2022-12-18T09:48:58;-7.10;99.90
14349;DHT22;7258;50.376;8.742;2022-12-18T09:51:05;-7.00;99.90
14349;DHT22;7258;50.376;8.742;2022-12-18T09:53:17;-6.90;99.90
14349;DHT22;7258;50.376;8.742;2022-12-18T09:55:24;-6.70;99.90
14349;DHT22;7258;50.376;8.742;2022-12-18T09:57:42;-6.60;99.90
14349;DHT22;7258;50.376;8.742;2022-12-18T09:59:51;-6.50;99.90
14349;DHT22;7258;50.376;8.742;2022-12-18T10:01:56;-6.40;99.90
14349;DHT22;7258;50.376;8.742;2022-12-18T10:04:00;-6.30;99.90
14349;DHT22;7258;50.376;8.742;2022-12-18T10:06:08;-6.30;99.90
14349;DHT22;7258;50.376;8.742;2022-12-18T10:08:19;-6.20;99.90
14349;DHT22;7258;50.376;8.742;2022-12-18T10:10:32;-6.20;99.90
14349;DHT22;7258;50.376;8.742;2022-12-18T10:12:42;-6.10;99.90
14349;DHT22;7258;50.376;8.742;2022-12-18T10:14:52;-6.10;99.90
14349;DHT22;7258;50.376;8.742;2022-12-18T10:17:05;-6.10;99.90
14349;DHT22;7258;50.376;8.742;2022-12-18T10:19:20;-6.00;99.90
14349;DHT22;7258;50.376;8.742;2022-12-18T10:21:30;-6.00;99.90
14349;DHT22;7258;50.376;8.742;2022-12-18T10:23:41;-6.00;99.90
14349;DHT22;7258;50.376;8.742;2022-12-18T10:25:53;-5.90;99.90
14349;DHT22;7258;50.376;8.742;2022-12-18T10:28:06;-5.90;99.90
14349;DHT22;7258;50.376;8.742;2022-12-18T10:30:13;-5.90;99.90
14349;DHT22;7258;50.376;8.742;2022-12-18T10:32:18;-5.80;99.90
14349;DHT22;7258;50.376;8.742;2022-12-18T10:34:21;-5.80;99.90
14349;DHT22;7258;50.376;8.742;2022-12-18T10:36:24;-5.80;99.90
14349;DHT22;7258;50.376;8.742;2022-12-18T10:38:28;-5.70;99.90
14349;DHT22;7258;50.376;8.742;2022-12-18T10:40:47;-5.60;99.90
14349;DHT22;7258;50.376;8.742;2022-12-18T10:43:03;-5.50;99.90
14349;DHT22;7258;50.376;8.742;2022-12-18T10:45:10;-5.40;99.90
14349;DHT22;7258;50.376;8.742;2022-12-18T10:47:15;-5.30;99.90
14349;DHT22;7258;50.376;8.742;2022-12-18T10:49:23;-5.30;99.90
14349;DHT22;7258;50.376;8.742;2022-12-18T10:51:28;-5.30;99.90
14349;DHT22;7258;50.376;8.742;2022-12-18T10:53:34;-5.30;99.90
14349;DHT22;7258;50.376;8.742;2022-12-18T10:55:39;-5.40;99.90
14349;DHT22;7258;50.376;8.742;2022-12-18T10:57:47;-5.40;99.90
14349;DHT22;7258;50.376;8.742;2022-12-18T10:59:51;-5.40;99.90
14349;DHT22;7258;50.376;8.742;2022-12-18T11:01:56;-5.40;99.90
14349;DHT22;7258;50.376;8.742;2022-12-18T11:04:02;-5.40;99.90
14349;DHT22;7258;50.376;8.742;2022-12-18T11:06:11;-5.30;99.90
14349;DHT22;7258;50.376;8.742;2022-12-18T11:08:20;-5.30;99.90
14349;DHT22;7258;50.376;8.742;2022-12-18T11:10:28;-5.20;99.90
14349;DHT22;7258;50.376;8.742;2022-12-18T11:12:34;-5.20;99.90
14349;DHT22;7258;50.376;8.742;2022-12-18T11:14:43;-5.20;99.90
14349;DHT22;7258;50.376;8.742;2022-12-18T11:16:49;-5.20;99.90
14349;DHT22;7258;50.376;8.742;2022-12-18T11:19:19;-5.20;99.90
14349;DHT22;7258;50.376;8.742;2022-12-18T11:21:24;-5.30;99.90
14349;DHT22;7258;50.376;8.742;2022-12-18T11:23:27;-5.30;99.90
14349;DHT22;7258;50.376;8.742;2022-12-18T11:25:30;-5.30;99.90
14349;DHT22;7258;50.376;8.742;2022-12-18T11:27:37;-5.30;99.90
14349;DHT22;7258;50.376;8.742;2022-12-18T11:29:40;-5.30;99.90
14349;DHT22;7258;50.376;8.742;2022-12-18T11:31:47;-5.20;99.90
14349;DHT22;7258;50.376;8.742;2022-12-18T11:33:56;-5.20;99.90
14349;DHT22;7258;50.376;8.742;2022-12-18T11:36:22;-5.20;99.90
14349;DHT22;7258;50.376;8.742;2022-12-18T11:38:27;-5.10;99.90
14349;DHT22;7258;50.376;8.742;2022-12-18T11:40:34;-5.10;99.90
14349;DHT22;7258;50.376;8.742;2022-12-18T11:42:48;-5.10;99.90
14349;DHT22;7258;50.376;8.742;2022-12-18T11:44:55;-5.10;99.90
14349;DHT22;7258;50.376;8.742;2022-12-18T11:47:01;-5.00;99.90
14349;DHT22;7258;50.376;8.742;2022-12-18T11:49:12;-5.00;99.90
14349;DHT22;7258;50.376;8.742;2022-12-18T11:51:29;-5.00;99.90
14349;DHT22;7258;50.376;8.742;2022-12-18T11:53:34;-5.00;99.90
14349;DHT22;7258;50.376;8.742;2022-12-18T11:55:43;-5.00;99.90
14349;DHT22;7258;50.376;8.742;2022-12-18T11:57:56;-5.00;99.90
14349;DHT22;7258;50.376;8.742;2022-12-18T12:00:03;-5.00;99.90
14349;DHT22;7258;50.376;8.742;2022-12-18T12:02:23;-4.90;99.90
14349;DHT22;7258;50.376;8.742;2022-12-18T12:04:48;-4.90;99.90
14349;DHT22;7258;50.376;8.742;2022-12-18T12:06:58;-4.90;99.90
14349;DHT22;7258;50.376;8.742;2022-12-18T12:09:13;-4.90;99.90
14349;DHT22;7258;50.376;8.742;2022-12-18T12:11:25;-4.80;99.90
14349;DHT22;7258;50.376;8.742;2022-12-18T12:13:40;-4.80;99.90
14349;DHT22;7258;50.376;8.742;2022-12-18T12:15:50;-4.80;99.90
14349;DHT22;7258;50.376;8.742;2022-12-18T12:17:59;-4.70;99.90
14349;DHT22;7258;50.376;8.742;2022-12-18T12:20:16;-4.70;99.90
14349;DHT22;7258;50.376;8.742;2022-12-18T12:22:26;-4.70;99.90
14349;DHT22;7258;50.376;8.742;2022-12-18T12:24:39;-4.70;99.90
14349;DHT22;7258;50.376;8.742;2022-12-18T12:26:55;-4.70;99.90
14349;DHT22;7258;50.376;8.742;2022-12-18T12:29:19;-4.70;99.90
14349;DHT22;7258;50.376;8.742;2022-12-18T12:31:36;-4.60;99.90
14349;DHT22;7258;50.376;8.742;2022-12-18T12:33:48;-4.60;99.90
14349;DHT22;7258;50.376;8.742;2022-12-18T12:35:59;-4.70;99.90
14349;DHT22;7258;50.376;8.742;2022-12-18T12:38:11;-4.70;99.90
14349;DHT22;7258;50.376;8.742;2022-12-18T12:40:22;-4.70;99.90
14349;DHT22;7258;50.376;8.742;2022-12-18T12:42:49;-4.70;99.90
14349;DHT22;7258;50.376;8.742;2022-12-18T12:45:20;-4.70;99.90
14349;DHT22;7258;50.376;8.742;2022-12-18T12:47:27;-4.70;99.90
14349;DHT22;7258;50.376;8.742;2022-12-18T12:49:33;-4.70;99.90
14349;DHT22;7258;50.376;8.742;2022-12-18T12:51:43;-4.70;99.90
14349;DHT22;7258;50.376;8.742;2022-12-18T12:53:48;-4.70;99.90
14349;DHT22;7258;50.376;8.742;2022-12-18T12:55:52;-4.70;99.90
14349;DHT22;7258;50.376;8.742;2022-12-18T12:58:02;-4.80;99.90
14349;DHT22;7258;50.376;8.742;2022-12-18T13:00:10;-4.70;99.90
14349;DHT22;7258;50.376;8.742;2022-12-18T13:02:22;-4.70;99.90
14349;DHT22;7258;50.376;8.742;2022-12-18T13:04:34;-4.70;99.90
14349;DHT22;7258;50.376;8.742;2022-12-18T13:06:43;-4.70;99.90
14349;DHT22;7258;50.376;8.742;2022-12-18T13:08:55;-4.70;99.90
14349;DHT22;7258;50.376;8.742;2022-12-18T13:10:58;-4.70;99.90
14349;DHT22;7258;50.376;8.742;2022-12-18T13:13:17;-4.60;99.90
14349;DHT22;7258;50.376;8.742;2022-12-18T13:15:32;-4.60;99.90
14349;DHT22;7258;50.376;8.742;2022-12-18T13:17:41;-4.60;99.90
14349;DHT22;7258;50.376;8.742;2022-12-18T13:19:47;-4.60;99.90
14349;DHT22;7258;50.376;8.742;2022-12-18T13:21:55;-4.60;99.90
14349;DHT22;7258;50.376;8.742;2022-12-18T13:24:15;-4.60;99.90
14349;DHT22;7258;50.376;8.742;2022-12-18T13:26:32;-4.60;99.90